createdAt,value
2022-11-03T00:01:39.523Z,71.80
2022-11-03T00:04:10.298Z,72.21
2022-11-03T00:06:39.708Z,72.06
2022-11-03T00:09:10.185Z,71.89
2022-11-03T00:11:40.213Z,72.11
2022-11-03T00:14:10.353Z,72.24
2022-11-03T00:16:40.003Z,72.07
2022-11-03T00:19:10.040Z,72.33
2022-11-03T00:21:38.927Z,72.36
2022-11-03T00:24:08.753Z,71.94
2022-11-03T00:26:37.878Z,72.01
2022-11-03T00:29:10.564Z,71.87
2022-11-03T00:31:40.969Z,72.11
2022-11-03T00:34:10.597Z,72.13
2022-11-03T00:36:41.582Z,72.27
2022-11-03T00:39:10.867Z,71.86
2022-11-03T00:41:39.901Z,71.40
2022-11-03T00:44:10.147Z,71.05
2022-11-03T00:46:38.834Z,70.83
2022-11-03T00:49:07.595Z,71.15
2022-11-03T00:51:36.290Z,71.50
2022-11-03T00:54:06.826Z,71.73
2022-11-03T00:56:37.264Z,71.82
2022-11-03T00:59:07.700Z,71.72
2022-11-03T01:01:45.224Z,71.33
2022-11-03T01:04:33.473Z,71.13
2022-11-03T01:07:02.815Z,70.88
2022-11-03T01:09:35.303Z,70.71
2022-11-03T01:12:07.077Z,70.56
2022-11-03T01:14:38.367Z,70.38
2022-11-03T01:17:07.854Z,70.52
2022-11-03T01:19:36.683Z,70.89
2022-11-03T01:22:09.536Z,71.44
2022-11-03T01:24:40.749Z,71.51
2022-11-03T01:27:09.831Z,71.12
2022-11-03T01:29:38.496Z,71.37
2022-11-03T01:32:08.505Z,72.14
2022-11-03T01:34:37.308Z,72.27
2022-11-03T01:37:05.997Z,72.33
2022-11-03T01:39:35.143Z,72.30
2022-11-03T01:42:04.029Z,72.36
2022-11-03T01:44:35.209Z,72.17
2022-11-03T01:47:12.751Z,71.84
2022-11-03T01:49:47.001Z,72.01
2022-11-03T01:52:20.366Z,72.13
2022-11-03T01:54:52.039Z,72.80
2022-11-03T01:57:25.680Z,73.24
2022-11-03T01:59:58.107Z,72.82
2022-11-03T02:02:27.705Z,72.63
2022-11-03T02:05:00.349Z,72.74
2022-11-03T02:07:34.184Z,73.00
2022-11-03T02:10:03.532Z,72.92
2022-11-03T02:12:33.551Z,72.44
2022-11-03T02:15:06.564Z,71.97
2022-11-03T02:17:36.486Z,71.91
2022-11-03T02:20:08.324Z,71.88
2022-11-03T02:23:17.827Z,71.77
2022-11-03T02:25:48.468Z,71.91
2022-11-03T02:28:19.736Z,71.92
2022-11-03T02:30:54.698Z,71.82
2022-11-03T02:33:36.043Z,71.75
2022-11-03T02:36:12.075Z,71.26
2022-11-03T02:38:53.491Z,70.82
2022-11-03T02:41:24.462Z,71.29
2022-11-03T02:43:55.776Z,71.59
2022-11-03T02:46:26.193Z,71.49
2022-11-03T02:48:56.737Z,71.42
2022-11-03T02:51:25.414Z,71.77
2022-11-03T02:54:03.257Z,71.41
2022-11-03T02:56:37.132Z,71.50
2022-11-03T02:59:10.262Z,71.64
2022-11-03T03:01:47.424Z,72.08
2022-11-03T03:04:20.036Z,71.82
2022-11-03T03:06:53.855Z,71.40
2022-11-03T03:09:28.805Z,71.37
2022-11-03T03:12:01.280Z,71.81
2022-11-03T03:14:32.367Z,71.58
2022-11-03T03:17:05.440Z,71.58
2022-11-03T03:19:44.333Z,71.80
2022-11-03T03:22:21.605Z,71.57
2022-11-03T03:24:56.459Z,71.66
2022-11-03T03:27:28.135Z,71.93
2022-11-03T03:30:01.396Z,71.89
2022-11-03T03:32:35.832Z,72.09
2022-11-03T03:35:09.002Z,72.42
2022-11-03T03:37:41.243Z,72.63
2022-11-03T03:40:16.320Z,72.98
2022-11-03T03:42:47.489Z,72.64
2022-11-03T03:45:17.554Z,72.19
2022-11-03T03:47:47.015Z,71.83
2022-11-03T03:50:16.328Z,71.62
2022-11-03T03:52:44.986Z,71.99
2022-11-03T03:55:19.737Z,72.27
2022-11-03T03:57:47.798Z,72.76
2022-11-03T04:00:17.262Z,72.45
2022-11-03T04:02:46.022Z,71.96
2022-11-03T04:05:14.882Z,71.90
2022-11-03T04:07:49.684Z,72.13
2022-11-03T04:10:18.491Z,72.06
2022-11-03T04:13:05.494Z,71.95
2022-11-03T04:15:52.639Z,71.95
2022-11-03T04:18:41.166Z,71.54
2022-11-03T04:21:31.282Z,71.58
2022-11-03T04:24:00.479Z,71.33
2022-11-03T04:26:29.477Z,70.85
2022-11-03T04:29:00.312Z,70.86
2022-11-03T04:31:38.134Z,71.83
2022-11-03T04:34:15.789Z,71.85
2022-11-03T04:36:46.456Z,71.73
2022-11-03T04:39:19.156Z,71.59
2022-11-03T04:41:47.875Z,71.70
2022-11-03T04:44:17.195Z,71.54
2022-11-03T04:46:46.804Z,71.46
2022-11-03T04:49:22.229Z,71.36
2022-11-03T04:51:51.398Z,71.47
2022-11-03T04:54:23.510Z,71.22
2022-11-03T04:56:52.511Z,71.13
2022-11-03T04:59:21.192Z,71.22
2022-11-03T05:01:50.173Z,70.66
2022-11-03T05:04:19.359Z,71.03
2022-11-03T05:06:51.530Z,71.22
2022-11-03T05:09:25.185Z,71.17
2022-11-03T05:11:53.932Z,71.73
2022-11-03T05:14:24.864Z,71.87
2022-11-03T05:16:55.589Z,72.01
2022-11-03T05:19:27.416Z,71.52
2022-11-03T05:21:58.775Z,71.77
2022-11-03T05:24:28.230Z,71.77
2022-11-03T05:26:59.128Z,72.06
2022-11-03T05:29:33.313Z,72.16
2022-11-03T05:32:02.058Z,72.23
2022-11-03T05:34:37.723Z,72.69
2022-11-03T05:37:26.708Z,72.77
2022-11-03T05:39:57.907Z,72.45
2022-11-03T05:42:38.004Z,72.64
2022-11-03T05:45:16.050Z,72.58
2022-11-03T05:47:44.829Z,72.59
2022-11-03T05:50:19.390Z,72.42
2022-11-03T05:52:50.022Z,72.52
2022-11-03T05:55:27.777Z,72.05
2022-11-03T05:57:59.076Z,72.25
2022-11-03T06:00:30.617Z,71.65
2022-11-03T06:03:00.357Z,71.82
2022-11-03T06:05:31.235Z,71.60
2022-11-03T06:08:03.865Z,71.80
2022-11-03T06:10:37.625Z,72.08
2022-11-03T06:13:14.592Z,72.27
2022-11-03T06:15:46.195Z,72.09
2022-11-03T06:18:19.737Z,72.18
2022-11-03T06:20:52.354Z,71.67
2022-11-03T06:23:23.373Z,71.33
2022-11-03T06:25:54.909Z,70.68
2022-11-03T06:28:27.113Z,70.01
2022-11-03T06:30:56.830Z,69.48
2022-11-03T06:33:28.190Z,68.74
2022-11-03T06:36:02.594Z,67.96
2022-11-03T06:38:34.233Z,67.07
2022-11-03T06:41:03.091Z,66.33
2022-11-03T06:43:40.154Z,65.62
2022-11-03T06:46:19.678Z,65.33
2022-11-03T06:48:48.588Z,65.79
2022-11-03T06:51:21.250Z,66.53
2022-11-03T06:53:53.412Z,66.92
2022-11-03T06:56:25.296Z,66.52
2022-11-03T06:58:56.449Z,65.08
2022-11-03T07:01:30.085Z,65.21
2022-11-03T07:04:04.133Z,65.25
2022-11-03T07:06:36.872Z,64.99
2022-11-03T07:09:09.428Z,65.47
2022-11-03T07:11:44.037Z,65.10
2022-11-03T07:14:15.367Z,65.26
2022-11-03T07:16:47.733Z,65.56
2022-11-03T07:19:21.792Z,65.63
2022-11-03T07:21:53.232Z,65.44
2022-11-03T07:24:24.659Z,65.07
2022-11-03T07:26:59.301Z,65.46
2022-11-03T07:29:29.621Z,65.03
2022-11-03T07:32:00.623Z,64.41
2022-11-03T07:34:32.890Z,64.12
2022-11-03T07:37:02.722Z,64.62
2022-11-03T07:39:37.661Z,64.70
2022-11-03T07:42:14.031Z,63.86
2022-11-03T07:44:43.063Z,63.25
2022-11-03T07:47:14.389Z,62.36
2022-11-03T07:49:43.767Z,61.53
2022-11-03T07:52:14.988Z,60.75
2022-11-03T07:54:44.558Z,60.45
2022-11-03T07:57:21.566Z,59.97
2022-11-03T07:59:52.219Z,59.58
2022-11-03T08:02:31.154Z,59.36
2022-11-03T08:04:59.856Z,59.29
2022-11-03T08:07:29.833Z,59.38
2022-11-03T08:09:58.838Z,59.41
2022-11-03T08:12:27.684Z,59.22
2022-11-03T08:14:56.607Z,58.65
2022-11-03T08:17:25.863Z,58.55
2022-11-03T08:19:54.657Z,58.55
2022-11-03T08:22:25.514Z,58.99
2022-11-03T08:24:54.317Z,58.88
2022-11-03T08:27:23.042Z,58.66
2022-11-03T08:29:52.159Z,58.41
2022-11-03T08:32:20.809Z,57.93
2022-11-03T08:34:49.656Z,57.74
2022-11-03T08:37:18.350Z,57.91
2022-11-03T08:39:47.165Z,57.63
2022-11-03T08:42:16.111Z,57.25
2022-11-03T08:44:44.753Z,57.20
2022-11-03T08:47:13.522Z,57.31
2022-11-03T08:49:42.276Z,57.40
2022-11-03T08:52:11.038Z,57.07
2022-11-03T08:54:39.815Z,56.79
2022-11-03T08:57:08.647Z,56.72
2022-11-03T08:59:38.370Z,56.40
2022-11-03T09:02:08.123Z,56.42
2022-11-03T09:04:36.947Z,56.30
2022-11-03T09:07:05.834Z,56.34
2022-11-03T09:12:23.713Z,55.96
2022-11-03T09:14:52.704Z,55.97
2022-11-03T09:17:21.526Z,56.08
2022-11-03T09:19:50.222Z,56.11
2022-11-03T09:22:19.379Z,55.82
2022-11-03T09:24:48.133Z,55.63
2022-11-03T09:27:16.975Z,55.59
2022-11-03T09:30:11.222Z,55.78
2022-11-03T09:32:35.147Z,55.95
2022-11-03T09:35:04.402Z,55.41
2022-11-03T09:37:33.235Z,55.10
2022-11-03T09:40:02.122Z,54.76
2022-11-03T09:42:34.004Z,54.91
2022-11-03T09:45:04.279Z,55.04
2022-11-03T09:47:36.192Z,54.86
2022-11-03T09:50:08.258Z,55.10
2022-11-03T09:52:38.054Z,54.78
2022-11-03T09:55:15.869Z,54.38
2022-11-03T09:57:45.917Z,54.60
2022-11-03T10:00:25.380Z,54.49
2022-11-03T10:02:55.625Z,54.47
2022-11-03T10:05:26.832Z,54.37
2022-11-03T10:07:59.477Z,54.10
2022-11-03T10:10:29.879Z,53.92
2022-11-03T10:12:59.737Z,54.24
2022-11-03T10:15:28.946Z,53.97
2022-11-03T10:17:58.139Z,53.85
2022-11-03T10:20:29.259Z,53.56
2022-11-03T10:22:58.061Z,53.83
2022-11-03T10:25:37.464Z,54.02
2022-11-03T10:28:18.222Z,54.09
2022-11-03T10:33:42.260Z,53.94
2022-11-03T10:36:25.962Z,54.30
2022-11-03T10:38:55.178Z,54.29
2022-11-03T10:41:25.428Z,54.29
2022-11-03T10:44:07.797Z,54.32
2022-11-03T10:46:50.383Z,54.43
2022-11-03T10:49:21.312Z,54.17
2022-11-03T10:51:52.492Z,54.33
2022-11-03T10:54:23.442Z,54.36
2022-11-03T10:56:53.159Z,54.42
2022-11-03T10:59:24.567Z,54.32
2022-11-03T11:01:53.533Z,54.31
2022-11-03T11:04:22.815Z,54.25
2022-11-03T11:06:52.330Z,53.98
2022-11-03T11:09:25.085Z,53.80
2022-11-03T11:12:15.768Z,53.68
2022-11-03T11:14:55.332Z,53.57
2022-11-03T11:17:56.593Z,53.58
2022-11-03T11:20:34.233Z,53.36
2022-11-03T11:23:52.022Z,53.19
2022-11-03T11:26:40.897Z,53.66
2022-11-03T11:29:35.991Z,53.40
2022-11-03T11:32:47.240Z,53.17
2022-11-03T11:35:40.196Z,53.19
2022-11-03T11:38:44.566Z,52.78
2022-11-03T11:41:13.793Z,53.13
2022-11-03T11:43:42.614Z,53.16
2022-11-03T11:46:39.445Z,52.72
2022-11-03T11:49:18.712Z,52.34
2022-11-03T11:51:47.781Z,51.70
2022-11-03T11:54:20.562Z,51.71
2022-11-03T11:56:51.070Z,51.87
2022-11-03T11:59:25.849Z,51.99
2022-11-03T12:01:57.211Z,52.26
2022-11-03T12:04:30.788Z,52.30
2022-11-03T12:06:59.550Z,51.54
2022-11-03T12:09:28.907Z,51.44
2022-11-03T12:12:02.094Z,51.64
2022-11-03T12:14:38.398Z,51.57
2022-11-03T12:17:37.007Z,51.64
2022-11-03T12:20:35.994Z,51.58
2022-11-03T12:23:04.807Z,51.36
2022-11-03T12:25:39.844Z,51.26
2022-11-03T12:28:09.241Z,51.32
2022-11-03T12:30:40.010Z,51.22
2022-11-03T12:33:10.227Z,51.52
2022-11-03T12:35:39.452Z,51.50
2022-11-03T12:38:08.171Z,51.41
2022-11-03T12:40:37.042Z,51.16
2022-11-03T12:43:14.674Z,51.15
2022-11-03T12:45:46.399Z,51.18
2022-11-03T12:48:15.241Z,51.05
2022-11-03T12:50:44.102Z,51.00
2022-11-03T12:53:12.886Z,50.99
2022-11-03T12:55:44.591Z,50.86
2022-11-03T12:58:13.920Z,50.90
2022-11-03T13:00:46.325Z,51.16
2022-11-03T13:03:18.500Z,51.28
2022-11-03T13:05:48.159Z,51.66
2022-11-03T13:10:47.051Z,51.81
2022-11-03T13:13:15.803Z,51.94
2022-11-03T13:15:44.853Z,51.81
2022-11-03T13:18:14.406Z,51.65
2022-11-03T13:20:44.625Z,51.53
2022-11-03T13:23:16.179Z,51.73
2022-11-03T13:25:47.558Z,51.95
2022-11-03T13:28:16.331Z,52.08
2022-11-03T13:30:45.043Z,51.91
2022-11-03T13:33:13.884Z,51.59
2022-11-03T13:35:42.805Z,51.71
2022-11-03T13:38:11.830Z,51.38
2022-11-03T13:40:56.354Z,51.55
2022-11-03T13:43:26.397Z,51.81
2022-11-03T13:45:58.208Z,51.50
2022-11-03T13:51:17.283Z,51.46
2022-11-03T14:04:46.212Z,52.94
2022-11-03T14:07:15.117Z,52.80
2022-11-03T14:09:43.875Z,52.97
2022-11-03T14:12:30.933Z,52.96
2022-11-03T14:15:00.317Z,52.58
2022-11-03T14:17:29.017Z,52.28
2022-11-03T14:20:01.050Z,52.31
2022-11-03T14:22:33.134Z,52.20
2022-11-03T14:25:02.419Z,52.13
2022-11-03T14:27:31.335Z,51.94
2022-11-03T14:30:00.195Z,52.09
2022-11-03T14:32:29.025Z,52.32
2022-11-03T14:34:57.735Z,52.57
2022-11-03T14:37:27.080Z,52.56
2022-11-03T14:39:56.091Z,52.71
2022-11-03T14:42:25.058Z,52.77
2022-11-03T14:44:54.654Z,52.77
2022-11-03T14:47:25.198Z,52.83
2022-11-03T14:49:54.058Z,53.10
2022-11-03T14:52:22.867Z,53.17
2022-11-03T14:54:51.881Z,53.43
2022-11-03T14:57:22.463Z,53.47
2022-11-03T14:59:53.592Z,53.65
2022-11-03T15:02:23.034Z,53.74
2022-11-03T15:04:51.932Z,53.90
2022-11-03T15:07:20.965Z,54.17
2022-11-03T15:09:49.866Z,54.39
2022-11-03T15:12:18.644Z,54.35
2022-11-03T15:14:47.754Z,54.64
2022-11-03T15:17:16.821Z,54.80
2022-11-03T15:19:45.845Z,54.94
2022-11-03T15:22:14.856Z,55.00
2022-11-03T15:27:33.125Z,55.72
2022-11-03T15:30:01.917Z,55.91
2022-11-03T15:32:36.170Z,56.21
2022-11-03T15:35:06.884Z,56.32
2022-11-03T15:37:35.751Z,56.65
2022-11-03T15:40:06.216Z,56.40
2022-11-03T15:42:35.847Z,56.82
2022-11-03T15:45:05.886Z,57.04
2022-11-03T15:47:35.015Z,57.23
2022-11-03T15:50:03.853Z,57.66
2022-11-03T15:52:33.127Z,57.71
2022-11-03T15:55:02.414Z,57.67
2022-11-03T15:57:31.499Z,58.09
2022-11-03T16:00:00.352Z,57.98
2022-11-03T16:02:41.483Z,58.26
2022-11-03T16:05:11.500Z,58.23
2022-11-03T16:07:40.326Z,57.73
2022-11-03T16:10:10.163Z,58.20
2022-11-03T16:12:39.126Z,58.55
2022-11-03T16:15:10.516Z,58.37
2022-11-03T16:17:45.253Z,58.40
2022-11-03T16:20:14.545Z,58.48
2022-11-03T16:22:43.658Z,58.35
2022-11-03T16:25:16.596Z,58.79
2022-11-03T16:27:47.969Z,58.38
2022-11-03T16:30:16.962Z,58.24
2022-11-03T16:32:45.989Z,58.69
2022-11-03T16:35:15.218Z,58.71
2022-11-03T16:37:44.253Z,58.73
2022-11-03T16:40:19.039Z,58.95
2022-11-03T16:42:48.390Z,59.13
2022-11-03T16:45:19.151Z,59.06
2022-11-03T16:47:49.616Z,59.23
2022-11-03T16:50:19.837Z,59.43
2022-11-03T16:52:49.793Z,59.57
2022-11-03T16:55:19.954Z,59.32
2022-11-03T16:57:49.439Z,59.24
2022-11-03T17:00:20.083Z,59.09
2022-11-03T17:02:49.104Z,59.28
2022-11-03T17:05:20.993Z,59.72
2022-11-03T17:07:53.911Z,60.00
2022-11-03T17:10:23.791Z,60.35
2022-11-03T17:12:52.591Z,60.54
2022-11-03T17:15:21.642Z,60.59
2022-11-03T17:17:51.071Z,60.59
2022-11-03T17:20:19.981Z,60.88
2022-11-03T17:22:48.824Z,60.84
2022-11-03T17:25:18.690Z,60.88
2022-11-03T17:27:49.612Z,61.14
2022-11-03T17:30:20.759Z,61.41
2022-11-03T17:32:51.534Z,61.39
2022-11-03T17:35:21.977Z,61.60
2022-11-03T17:37:52.732Z,61.35
2022-11-03T17:40:24.677Z,61.52
2022-11-03T17:42:55.175Z,61.69
2022-11-03T17:45:26.971Z,62.06
2022-11-03T17:47:55.874Z,62.22
2022-11-03T17:50:26.067Z,62.05
2022-11-03T17:52:56.115Z,62.02
2022-11-03T17:55:29.003Z,62.42
2022-11-03T17:58:04.701Z,62.44
2022-11-03T18:00:34.536Z,62.63
2022-11-03T18:03:08.049Z,62.83
2022-11-03T18:05:38.379Z,62.94
2022-11-03T18:08:11.863Z,63.25
2022-11-03T18:10:44.514Z,62.92
2022-11-03T18:13:19.434Z,62.59
2022-11-03T18:15:51.492Z,62.62
2022-11-03T18:18:25.421Z,63.05
2022-11-03T18:20:55.983Z,63.27
2022-11-03T18:23:28.239Z,63.26
2022-11-03T18:26:00.613Z,63.27
2022-11-03T18:28:31.774Z,63.42
2022-11-03T18:31:05.282Z,63.36
2022-11-03T18:33:36.596Z,63.35
2022-11-03T18:36:07.958Z,63.10
2022-11-03T18:38:40.513Z,63.29
2022-11-03T18:41:34.263Z,63.66
2022-11-03T18:44:07.887Z,63.66
2022-11-03T18:46:38.392Z,63.90
2022-11-03T18:49:08.967Z,63.75
2022-11-03T18:51:41.499Z,63.57
2022-11-03T18:54:15.136Z,63.34
2022-11-03T18:56:44.446Z,63.65
2022-11-03T18:59:22.088Z,64.05
2022-11-03T19:01:51.543Z,64.37
2022-11-03T19:04:21.081Z,64.11
2022-11-03T19:06:53.399Z,63.91
2022-11-03T19:09:25.946Z,64.03
2022-11-03T19:11:58.268Z,64.31
2022-11-03T19:14:32.202Z,64.41
2022-11-03T19:19:54.923Z,64.49
2022-11-03T19:22:25.200Z,64.44
2022-11-03T19:24:54.309Z,64.09
2022-11-03T19:27:30.156Z,64.26
2022-11-03T19:30:00.765Z,64.10
2022-11-03T19:32:36.322Z,64.25
2022-11-03T19:35:08.067Z,64.42
2022-11-03T19:37:38.114Z,64.08
2022-11-03T19:40:13.604Z,64.34
2022-11-03T19:42:44.067Z,64.81
2022-11-03T19:45:24.558Z,64.66
2022-11-03T19:50:53.410Z,65.11
2022-11-03T19:53:26.919Z,65.32
2022-11-03T19:55:58.161Z,65.24
2022-11-03T19:58:30.463Z,65.07
2022-11-03T20:01:04.266Z,65.58
2022-11-03T20:03:39.864Z,65.70
2022-11-03T20:06:15.380Z,65.47
2022-11-03T20:08:48.821Z,65.63
2022-11-03T20:11:19.672Z,66.11
2022-11-03T20:13:53.113Z,66.19
2022-11-03T20:16:23.021Z,66.11
2022-11-03T20:18:53.867Z,66.55
2022-11-03T20:21:23.683Z,66.69
2022-11-03T20:23:53.368Z,66.05
2022-11-03T20:26:25.392Z,65.93
2022-11-03T20:28:56.994Z,66.01
2022-11-03T20:31:26.658Z,65.58
2022-11-03T20:33:56.333Z,65.59
2022-11-03T20:36:26.914Z,65.98
2022-11-03T20:38:59.606Z,65.80
2022-11-03T20:41:31.826Z,65.76
2022-11-03T20:44:01.304Z,65.84
2022-11-03T20:46:33.758Z,65.71
2022-11-03T20:49:03.435Z,66.25
2022-11-03T20:51:35.551Z,66.41
2022-11-03T20:54:13.153Z,66.11
2022-11-03T20:56:48.029Z,66.62
2022-11-03T20:59:18.593Z,66.33
2022-11-03T21:01:49.387Z,66.33
2022-11-03T21:04:20.887Z,65.89
2022-11-03T21:06:50.636Z,65.57
2022-11-03T21:09:21.052Z,65.54
2022-11-03T21:11:53.482Z,65.76
2022-11-03T21:14:28.260Z,65.62
2022-11-03T21:17:15.859Z,66.11
2022-11-03T21:20:01.938Z,66.01
2022-11-03T21:22:52.015Z,66.43
2022-11-03T21:25:23.856Z,66.04
2022-11-03T21:27:54.478Z,66.27
2022-11-03T21:30:24.305Z,66.29
2022-11-03T21:32:53.344Z,66.14
2022-11-03T21:35:23.144Z,66.34
2022-11-03T21:37:52.033Z,66.34
2022-11-03T21:40:21.229Z,65.90
2022-11-03T21:43:08.862Z,65.84
2022-11-03T21:45:38.303Z,66.42
2022-11-03T21:48:27.303Z,66.46
2022-11-03T21:51:02.011Z,66.44
2022-11-03T21:53:32.989Z,66.40
2022-11-03T21:56:01.933Z,65.96
2022-11-03T21:58:32.684Z,66.49
2022-11-03T22:01:04.660Z,66.56
2022-11-03T22:03:35.681Z,66.59
2022-11-03T22:06:08.579Z,66.43
2022-11-03T22:08:38.613Z,66.90
2022-11-03T22:11:23.407Z,66.45
2022-11-03T22:13:55.604Z,67.25
2022-11-03T22:16:37.419Z,67.19
2022-11-03T22:19:27.284Z,67.12
2022-11-03T22:22:14.550Z,67.34
2022-11-03T22:25:01.170Z,66.55
2022-11-03T22:27:32.329Z,66.20
2022-11-03T22:30:20.637Z,66.25
2022-11-03T22:32:53.146Z,66.64
2022-11-03T22:35:44.015Z,66.84
2022-11-03T22:38:14.652Z,67.13
2022-11-03T22:41:04.465Z,67.09
2022-11-03T22:43:51.786Z,67.10
2022-11-03T22:46:20.517Z,66.95
2022-11-03T22:48:49.328Z,66.80
2022-11-03T22:51:19.027Z,66.59
2022-11-03T22:54:05.645Z,65.79
2022-11-03T22:56:34.431Z,65.79
2022-11-03T22:59:03.315Z,65.73
2022-11-03T23:01:32.299Z,65.93
2022-11-03T23:04:01.263Z,65.50
2022-11-03T23:06:34.870Z,66.14
2022-11-03T23:09:04.173Z,65.46
2022-11-03T23:11:33.534Z,65.38
2022-11-03T23:14:04.674Z,65.08
2022-11-03T23:16:34.815Z,65.19
2022-11-03T23:19:21.743Z,65.12
2022-11-03T23:21:52.662Z,64.69
2022-11-03T23:24:44.005Z,64.55
2022-11-03T23:27:14.276Z,64.58
2022-11-03T23:29:43.072Z,64.82
2022-11-03T23:32:12.014Z,64.88
2022-11-03T23:34:41.681Z,64.88
2022-11-03T23:37:10.349Z,64.84
2022-11-03T23:39:39.061Z,64.86
2022-11-03T23:42:08.332Z,64.85
2022-11-03T23:44:51.394Z,65.44
2022-11-03T23:47:49.787Z,65.67
2022-11-03T23:50:18.771Z,65.51
2022-11-03T23:52:47.559Z,65.94
2022-11-03T23:55:16.519Z,66.01
2022-11-03T23:58:03.162Z,66.00
